• Join FlightAware (Why Join?)
  • Login
  • US Flag 
08:14AM EDT


 

Airport Tracker/Info


-or-


 

Live Flight TrackerFlight Track Log ✈ TRS1193 ✈ 10-May-2012 ✈ KATL - KIAD

Flight Track Log - Related Links

Times and Time Zones

All times are in EDT time to prevent confusion due to time zone crossing. See the TRS1193 flight status page for this flight to view local times or setup timezone preferences in your user account.

Time Position Orientation Groundspeed Altitude Reporting Facility
EDT Latitude Longitude Course Direction KTS MPH feet Rate Location/Type
09:23PM 33.6328 -84.4831 150° Southeast 454 522 2,500  Level Atlanta Center
09:28PM 33.4556 -84.3625 67° East 333 383 11,200 1,680 Climbing Atlanta Center
09:29PM 33.4936 -84.2556 30° Northeast 342 394 12,600 1,380 Climbing Atlanta Center
09:30PM 33.5728 -84.2008 29° Northeast 328 377 14,000 1,800 Climbing Atlanta Center
09:31PM 33.6731 -84.1336 40° Northeast 360 414 16,200 1,980 Climbing Atlanta Center
09:32PM 33.7567 -84.0489 58° Northeast 381 438 18,000 1,740 Climbing Atlanta Center
09:33PM 33.8192 -83.9289 57° Northeast 399 459 19,700 1,560 Climbing Atlanta Center
09:34PM 33.8839 -83.8086 55° Northeast 425 489 21,200 1,620 Climbing Atlanta Center
09:36PM 34.0333 -83.5525 53° Northeast 448 516 24,700 1,500 Climbing Atlanta Center
09:37PM 34.1078 -83.4317 53° Northeast 448 516 25,700 1,140 Climbing Atlanta Center
09:38PM 34.1844 -83.3081 51° Northeast 453 521 27,000 1,080 Climbing Atlanta Center
09:39PM 34.2650 -83.1867 53° Northeast 458 527 27,900 1,080 Climbing Atlanta Center
09:41PM 34.4236 -82.9308 53° Northeast 468 539 30,300 1,200 Climbing Atlanta Center
09:42PM 34.4997 -82.8064 53° Northeast 463 533 31,500 1,080 Climbing Atlanta Center
09:43PM 34.5778 -82.6789 54° Northeast 463 533 32,500 720 Climbing Atlanta Center
09:44PM 34.6514 -82.5567 53° Northeast 453 521 33,000 180 Climbing Atlanta Center
09:45PM 34.7292 -82.4314 53° Northeast 453 521 33,000  Level Atlanta Center
09:46PM 34.8211 -82.2828 55° Northeast 458 527 33,000  Level Atlanta Center
09:47PM 34.8942 -82.1547 52° Northeast 458 527 33,000  Level Atlanta Center
09:48PM 34.9636 -82.0467 54° Northeast 453 521 33,000  Level Atlanta Center
09:49PM 35.0386 -81.9206 57° Northeast 453 521 33,000  Level Atlanta Center
09:50PM 35.1153 -81.7764 57° Northeast 459 528 33,000  Level Atlanta Center
09:51PM 35.1858 -81.6422 57° Northeast 459 528 33,000  Level Atlanta Center
09:52PM 35.2542 -81.5131 58° Northeast 464 534 33,000  Level Atlanta Center
09:53PM 35.3242 -81.3761 57° Northeast 459 528 33,000  Level Atlanta Center
09:54PM 35.3942 -81.2414 59° Northeast 459 528 33,000  Level Atlanta Center
09:55PM 35.4619 -81.1039 57° Northeast 464 534 33,000  Level Atlanta Center
09:58PM 35.6392 -80.7700 57° Northeast 464 534 33,000  Level Washington Center
09:59PM 35.7097 -80.6339 58° Northeast 464 534 33,000  Level Washington Center
10:00PM 35.7778 -80.5000 58° Northeast 464 534 33,000  Level Washington Center
10:01PM 35.8481 -80.3633 57° Northeast 464 534 33,000  Level Washington Center
10:02PM 35.9181 -80.2292 57° Northeast 464 534 33,000  Level Washington Center
10:03PM 35.9947 -80.0822 57° Northeast 464 534 33,000  Level Washington Center
10:04PM 36.0642 -79.9500 49° Northeast 459 528 33,000  Level Washington Center
10:05PM 36.1478 -79.8311 50° Northeast 459 528 33,000 -300 Level Washington Center
10:06PM 36.2225 -79.7219 49° Northeast 459 528 32,500 -780 Descending Washington Center
10:07PM 36.3144 -79.5928 50° Northeast 453 521 31,500 -1,800 Descending Washington Center
10:08PM 36.3978 -79.4706 48° Northeast 453 521 29,000 -1,020 Descending Washington Center
10:09PM 36.4853 -79.3483 50° Northeast 458 527 29,500 -720 Climbing Washington Center
10:10PM 36.5683 -79.2256 46° Northeast 464 534 27,600 -2,220 Descending Washington Center
10:11PM 36.6464 -79.1231 51° Northeast 464 534 25,100 -1,320 Descending Washington Center
10:12PM 36.7272 -78.9972 48° Northeast 464 534 25,000 -60 Descending Washington Center
10:13PM 36.8119 -78.8789 49° Northeast 464 534 25,000  Level Washington Center
10:14PM 36.8967 -78.7578 50° Northeast 464 534 25,000  Level Washington Center
10:15PM 36.9878 -78.6239 49° Northeast 464 534 25,000  Level Washington Center
10:16PM 37.0742 -78.4997 49° Northeast 464 534 25,000  Level Washington Center
10:17PM 37.1564 -78.3803 48° Northeast 464 534 25,000  Level Washington Center
10:18PM 37.2425 -78.2581 50° Northeast 464 534 25,000  Level Washington Center
10:19PM 37.3244 -78.1356 33° Northeast 469 540 25,000  Level Washington Center
10:20PM 37.4306 -78.0503 32° Northeast 447 514 25,000 -360 Level Washington Center
10:21PM 37.5408 -77.9647 33° Northeast 453 521 24,400 -1,620 Descending Washington Center
10:22PM 37.6467 -77.8789 33° Northeast 458 527 21,900 -2,520 Descending Washington Center
10:23PM 37.7506 -77.7928 31° Northeast 452 520 19,400 -2,400 Descending Washington Center
10:24PM 37.8522 -77.7142 34° Northeast 441 507 17,200 -2,340 Descending Washington Center
10:25PM 37.9453 -77.6353 32° Northeast 424 488 14,700 -2,220 Descending Washington Center
10:26PM 38.0192 -77.5764 33° Northeast 406 467 12,800 -1,860 Descending Washington Center
10:27PM 38.1100 -77.5025 32° Northeast 378 435 11,000 -1,380 Descending Washington Center
10:28PM 38.1797 -77.4461 16° North 330 380 10,100 -1,500 Descending Washington Center
10:29PM 38.2531 -77.4189 344° North 298 343 8,100 -2,100 Descending Washington Center
10:30PM 38.3217 -77.4442 336° Northwest 253 291 5,900 -1,560 Descending Washington Center
10:31PM 38.3856 -77.4803 North 244 281 5,000 -480 Descending Washington Center
10:32PM 38.4567 -77.4661 359° North 244 281 5,000  Level Washington Center
10:33PM 38.5278 -77.4681 North 249 287 5,000  Level Washington Center
10:34PM 38.6006 -77.4672 North 254 292 5,000  Level Washington Center
10:34PM 38.6333 -77.4667 360° North 257 296 5,000  Level Potomac TRACON
10:35PM 38.7167 -77.4667 360° North 254 292 5,000 -420 Level Potomac TRACON
10:36PM 38.7833 -77.4667 360° North 246 283 4,200 -1,320 Descending Potomac TRACON
10:37PM 38.8333 -77.4667 360° North 198 228 2,400 -1,320 Descending Potomac TRACON
10:38PM 38.8667 -77.4667 360° North 145 167 1,600 -780 Descending Potomac TRACON
10:39PM 38.9167 -77.4667 38° Northeast 136 157 900 -720 Descending Potomac TRACON
10:47PM 38.9333 -77.4500 38° Northeast  Level FlightAware Approximate